Time;durP1;ratioP1;P1;durP2;ratioP2;P2;SDS_P1;SDS_P2;PMS_P1;PMS_P2;Temp;Humidity;BMP_temperature;BMP_pressure;BME280_temperature;BME280_humidity;BME280_pressure;Samples;Min_cycle;Max_cycle;Signal;HPM_P1;HPM_P2
2023/02/09 00:02:00;;;;;;;8.13;4.50;;;;;;;0.48;74.64;101346.22;5087303;28;20055;-50
2023/02/09 00:04:26;;;;;;;6.95;4.30;;;;;;;0.33;74.58;101323.56;5067111;28;20443;-49
2023/02/09 00:06:52;;;;;;;7.47;4.20;;;;;;;0.48;74.91;101340.22;5088117;28;20043;-51
2023/02/09 00:09:18;;;;;;;8.05;4.50;;;;;;;0.48;74.98;101342.78;5102209;28;20047;-52
2023/02/09 00:14:31;;;;;;;7.88;4.10;;;;;;;0.46;75.45;101342.75;5107536;28;20093;-49
2023/02/09 00:16:57;;;;;;;9.02;4.10;;;;;;;0.28;75.97;101308.88;5107111;28;20043;-48
2023/02/09 00:19:22;;;;;;;7.28;4.15;;;;;;;0.33;76.08;101312.47;5107603;28;20527;-51
2023/02/09 00:22:00;;;;;;;7.75;4.57;;;;;;;0.38;76.34;101326.28;5109095;28;20028;-49
2023/02/09 00:24:26;;;;;;;7.90;3.92;;;;;;;0.39;76.84;101333.13;5107656;28;20058;-47
2023/02/09 00:26:52;;;;;;;7.63;4.22;;;;;;;0.07;76.62;101267.25;5089674;28;20534;-51
2023/02/09 00:29:22;;;;;;;13.00;4.63;;;;;;;0.12;76.56;101263.16;5109351;28;20071;-49
2023/02/09 00:31:50;;;;;;;9.00;4.68;;;;;;;0.43;76.68;101324.75;5090733;28;20032;-50
2023/02/09 00:34:16;;;;;;;8.93;4.65;;;;;;;0.40;77.13;101310.16;5107570;28;20550;-53
2023/02/09 00:36:42;;;;;;;9.43;4.20;;;;;;;0.24;77.27;101281.47;5107498;28;20127;-49
2023/02/09 00:39:08;;;;;;;9.35;4.20;;;;;;;0.43;77.37;101317.06;5107061;28;20039;-53
2023/02/09 00:44:21;;;;;;;10.32;5.00;;;;;;;0.42;77.42;101303.41;5107245;28;20412;-49
2023/02/09 00:46:48;;;;;;;7.22;4.18;;;;;;;0.46;77.92;101304.38;5107957;28;20054;-50
2023/02/09 00:49:14;;;;;;;8.38;4.80;;;;;;;0.48;77.65;101306.97;5108773;28;20035;-50
2023/02/09 00:51:40;;;;;;;8.50;4.38;;;;;;;0.31;78.01;101279.19;5107022;28;20148;-50
2023/02/09 00:54:05;;;;;;;9.75;5.05;;;;;;;0.45;78.17;101305.19;5108197;28;20445;-53
2023/02/09 00:56:31;;;;;;;9.13;4.60;;;;;;;0.49;78.12;101308.72;5106742;28;20118;-50
2023/02/09 00:58:59;;;;;;;8.82;4.82;;;;;;;0.29;78.32;101275.69;5107242;28;20441;-48
2023/02/09 01:01:25;;;;;;;7.40;4.03;;;;;;;0.54;78.04;101294.38;5108518;28;20051;-48
2023/02/09 01:03:52;;;;;;;7.60;4.18;;;;;;;0.54;77.88;101292.69;5108774;28;20130;-55
2023/02/09 01:06:19;;;;;;;7.50;4.32;;;;;;;0.36;77.90;101264.84;5090881;28;20039;-54
2023/02/09 01:08:45;;;;;;;7.70;4.32;;;;;;;0.55;77.87;101291.88;5107813;28;20051;-53
2023/02/09 01:11:12;;;;;;;9.60;4.40;;;;;;;0.57;77.76;101290.25;5093831;28;20047;-48
2023/02/09 01:13:38;;;;;;;7.25;4.05;;;;;;;0.55;78.24;101293.56;5079530;28;20040;-49
2023/02/09 01:16:10;;;;;;;7.95;4.65;;;;;;;0.61;77.81;101293.75;5107553;28;20039;-50
2023/02/09 01:18:40;;;;;;;6.88;4.18;;;;;;;0.63;77.94;101299.81;5090747;28;20043;-51
2023/02/09 01:21:10;;;;;;;8.48;4.78;;;;;;;0.63;77.66;101295.53;5108596;28;20488;-50
2023/02/09 01:23:37;;;;;;;7.90;4.53;;;;;;;0.63;77.89;101289.56;5107393;28;20036;-48
2023/02/09 01:26:04;;;;;;;7.75;4.55;;;;;;;0.62;78.03;101285.28;5106235;28;20511;-49
2023/02/09 01:28:34;;;;;;;8.13;4.30;;;;;;;0.63;77.73;101295.53;5106516;28;20044;-50
2023/02/09 01:31:03;;;;;;;10.35;4.85;;;;;;;0.58;77.72;101289.41;5106922;28;20539;-47
2023/02/09 01:33:29;;;;;;;10.55;5.13;;;;;;;0.63;77.68;101295.53;5107225;28;20039;-49
2023/02/09 01:35:57;;;;;;;9.18;5.13;;;;;;;0.43;77.85;101253.97;5107337;28;20530;-52
2023/02/09 01:38:25;;;;;;;8.10;4.65;;;;;;;0.47;77.99;101261.75;5108608;28;20043;-52
2023/02/09 01:40:51;;;;;;;8.88;4.50;;;;;;;0.65;78.16;101286.22;5107665;28;20046;-51
2023/02/09 01:43:17;;;;;;;8.90;4.45;;;;;;;0.65;78.07;101287.91;5089892;28;20060;-49
2023/02/09 01:45:48;;;;;;;8.00;4.68;;;;;;;0.64;77.90;101284.47;5112105;28;20042;-51
2023/02/09 01:48:16;;;;;;;13.32;5.40;;;;;;;0.64;78.27;101284.47;5094266;28;20039;-51
2023/02/09 01:50:44;;;;;;;11.38;5.43;;;;;;;0.66;78.30;101285.41;5110087;28;20342;-50
2023/02/09 01:53:10;;;;;;;9.27;4.53;;;;;;;0.55;78.41;101262.84;5112201;28;20035;-52
2023/02/09 01:55:46;;;;;;;10.43;4.72;;;;;;;0.69;78.54;101285.50;5109761;28;20047;-49
2023/02/09 01:58:14;;;;;;;9.40;5.30;;;;;;;0.68;78.30;101288.03;5110882;28;20131;-50
2023/02/09 02:00:41;;;;;;;10.02;4.97;;;;;;;0.69;78.44;101288.06;5093754;28;20043;-50
2023/02/09 02:03:12;;;;;;;10.38;4.97;;;;;;;0.65;78.48;101275.13;5094193;28;20047;-52
2023/02/09 02:05:41;;;;;;;8.65;4.82;;;;;;;0.69;78.11;101280.38;5110332;28;20530;-49
2023/02/09 02:08:12;;;;;;;13.35;5.40;;;;;;;0.71;78.23;101291.53;5093689;28;20066;-49
2023/02/09 02:10:38;;;;;;;9.93;4.82;;;;;;;0.53;78.32;101250.00;5089045;28;20036;-51
2023/02/09 02:13:04;;;;;;;9.63;5.60;;;;;;;0.72;78.28;101282.16;5091519;28;20038;-50
2023/02/09 02:15:45;;;;;;;11.23;5.72;;;;;;;0.59;78.29;101259.56;5108681;28;20130;-47
2023/02/09 02:18:14;;;;;;;10.90;5.28;;;;;;;0.76;78.23;101291.69;5110375;28;20039;-52
2023/02/09 02:21:10;;;;;;;10.07;5.17;;;;;;;0.78;78.34;101287.50;5111339;28;20055;-50
2023/02/09 02:24:13;;;;;;;10.38;5.60;;;;;;;0.80;78.42;101298.63;5109064;28;20472;-52
2023/02/09 02:27:03;;;;;;;8.38;5.25;;;;;;;0.81;78.46;101300.38;5111112;28;20039;-51
2023/02/09 02:29:35;;;;;;;11.30;6.00;;;;;;;0.80;78.15;101294.38;5072426;28;20498;-49
2023/02/09 02:32:17;;;;;;;8.27;4.97;;;;;;;0.81;78.30;101296.13;5091176;28;20044;-54
2023/02/09 02:34:53;;;;;;;9.43;5.18;;;;;;;0.78;78.07;101300.28;5097996;28;20039;-51
2023/02/09 02:38:00;;;;;;;8.38;4.85;;;;;;;0.80;77.63;101298.63;5110233;28;20043;-53
2023/02/09 02:40:50;;;;;;;9.68;4.75;;;;;;;0.82;78.02;101297.00;5028410;28;20099;-50
2023/02/09 02:43:47;;;;;;;9.98;5.15;;;;;;;0.83;77.58;101302.16;5089446;28;20542;-50
2023/02/09 02:46:15;;;;;;;8.82;4.70;;;;;;;0.86;77.42;101298.81;5109484;28;20039;-53
2023/02/09 02:49:00;;;;;;;9.60;5.68;;;;;;;0.84;77.40;101300.44;5092807;28;20091;-49
2023/02/09 02:51:36;;;;;;;12.65;5.97;;;;;;;0.82;77.24;101294.44;5109573;28;20063;-50
2023/02/09 02:54:06;;;;;;;11.70;6.05;;;;;;;0.50;77.18;101238.81;5110303;28;20039;-52
2023/02/09 02:56:36;;;;;;;8.50;5.20;;;;;;;0.86;77.02;101298.81;5109216;28;20515;-54
2023/02/09 02:59:04;;;;;;;9.55;5.40;;;;;;;0.81;77.09;101297.81;5089311;28;20554;-50
2023/02/09 03:01:39;;;;;;;9.23;5.28;;;;;;;0.89;77.51;101298.91;5090441;28;20135;-55
2023/02/09 03:04:06;;;;;;;10.68;5.50;;;;;;;0.91;77.12;101291.28;5089094;28;20068;-49
2023/02/09 03:06:33;;;;;;;10.27;6.00;;;;;;;0.92;77.16;101295.56;5089126;28;20064;-54
2023/02/09 03:08:59;;;;;;;11.20;5.97;;;;;;;0.93;76.85;101293.06;5108626;28;20054;-49
2023/02/09 03:11:30;;;;;;;12.48;5.88;;;;;;;0.92;77.22;101286.19;5110545;28;20040;-49
2023/02/09 03:14:17;;;;;;;9.85;5.68;;;;;;;0.94;77.30;101299.94;5110678;28;20126;-48
2023/02/09 03:16:46;;;;;;;11.63;5.00;;;;;;;0.94;76.60;101289.69;5108376;28;20051;-50
2023/02/09 03:19:39;;;;;;;10.77;5.75;;;;;;;0.95;76.97;101287.97;5110696;28;20040;-51
2023/02/09 03:22:12;;;;;;;10.02;5.40;;;;;;;0.96;76.93;101274.34;5109960;28;20044;-51
2023/02/09 03:25:06;;;;;;;9.85;5.53;;;;;;;0.96;76.43;101284.59;5109974;28;20067;-52
2023/02/09 03:27:37;;;;;;;10.10;5.97;;;;;;;0.80;76.43;101248.28;5107442;28;20150;-54
2023/02/09 03:30:05;;;;;;;11.30;6.18;;;;;;;0.97;76.39;101276.97;5092282;28;20556;-51
2023/02/09 03:32:31;;;;;;;11.38;5.75;;;;;;;0.98;76.42;101273.59;5110398;28;20080;-49
2023/02/09 03:34:58;;;;;;;11.60;6.20;;;;;;;0.83;76.45;101247.53;5108526;28;20412;-51
2023/02/09 03:37:23;;;;;;;10.98;6.13;;;;;;;0.97;76.39;101274.41;5108708;28;20047;-54
2023/02/09 03:39:49;;;;;;;12.95;5.88;;;;;;;0.96;76.72;101270.09;5092082;28;20043;-50
2023/02/09 03:42:15;;;;;;;10.90;6.03;;;;;;;0.99;76.29;101277.03;5107174;28;20138;-56
2023/02/09 03:44:41;;;;;;;11.13;5.85;;;;;;;0.98;76.29;101278.72;5109816;28;20099;-50
2023/02/09 03:47:08;;;;;;;10.73;5.60;;;;;;;1.01;76.47;101275.34;5108440;28;20039;-52
2023/02/09 03:49:39;;;;;;;11.57;5.65;;;;;;;0.70;76.53;101219.81;5109536;28;20086;-50
2023/02/09 03:52:07;;;;;;;12.90;6.90;;;;;;;0.96;76.19;101271.78;5109084;28;20047;-48
2023/02/09 03:54:34;;;;;;;10.90;6.00;;;;;;;0.99;75.94;101272.78;5109595;28;20039;-51
2023/02/09 03:57:00;;;;;;;12.73;5.70;;;;;;;1.01;76.05;101271.09;5107261;28;20050;-53
2023/02/09 03:59:27;;;;;;;12.75;6.47;;;;;;;0.83;76.51;101247.53;5107742;28;20042;-47
2023/02/09 04:01:55;;;;;;;12.88;6.55;;;;;;;1.01;76.27;101276.22;5107866;28;20035;-50
2023/02/09 04:04:21;;;;;;;11.98;6.35;;;;;;;1.00;76.44;101271.91;5109296;28;20046;-51
2023/02/09 04:06:47;;;;;;;13.95;6.72;;;;;;;1.02;76.08;101277.97;5107956;28;20035;-46
2023/02/09 04:09:13;;;;;;;13.75;6.55;;;;;;;1.06;76.26;101281.47;5108069;28;20040;-51
2023/02/09 04:11:39;;;;;;;13.70;6.10;;;;;;;1.04;75.94;101278.91;5109571;28;20047;-52
2023/02/09 04:14:07;;;;;;;14.38;5.72;;;;;;;1.04;76.13;101270.34;5108184;28;20091;-50
2023/02/09 04:16:33;;;;;;;10.23;5.65;;;;;;;0.87;76.08;101239.13;5108686;28;20036;-49
2023/02/09 04:18:59;;;;;;;13.45;5.65;;;;;;;1.02;76.09;101272.84;5109497;28;20031;-48
2023/02/09 04:21:25;;;;;;;12.95;6.05;;;;;;;1.00;76.30;101268.50;5106534;28;20506;-51
2023/02/09 04:23:51;;;;;;;10.82;5.63;;;;;;;0.99;76.13;101259.97;5108064;28;20137;-51
2023/02/09 04:26:17;;;;;;;14.13;6.75;;;;;;;1.03;76.51;101264.34;5109340;28;20043;-51
2023/02/09 04:28:43;;;;;;;10.38;5.55;;;;;;;1.05;76.19;101272.94;5109049;28;20045;-53
2023/02/09 04:31:09;;;;;;;10.98;6.20;;;;;;;1.05;76.33;101272.94;5107837;28;20183;-49
2023/02/09 04:33:35;;;;;;;11.38;5.90;;;;;;;0.74;76.08;101209.72;5107951;28;20060;-54
2023/02/09 04:36:01;;;;;;;13.70;5.85;;;;;;;0.99;75.87;101242.03;5106755;28;20460;-55
2023/02/09 04:38:27;;;;;;;11.35;6.18;;;;;;;0.78;76.15;101219.25;5108610;28;20130;-55
2023/02/09 04:40:54;;;;;;;11.38;5.90;;;;;;;1.05;76.05;101277.19;5109010;28;20096;-47
2023/02/09 04:43:21;;;;;;;11.13;6.20;;;;;;;1.04;76.01;101271.22;5100527;28;20051;-51
2023/02/09 04:45:47;;;;;;;13.18;6.28;;;;;;;0.87;76.06;101243.38;5108782;28;20042;-50
2023/02/09 04:48:15;;;;;;;10.68;5.80;;;;;;;1.06;76.19;101271.22;5108963;28;20125;-51
2023/02/09 04:50:41;;;;;;;13.00;6.80;;;;;;;1.02;75.93;101270.28;5100681;28;20515;-50
2023/02/09 04:53:07;;;;;;;11.98;6.53;;;;;;;0.85;75.97;101235.63;5080879;28;20042;-54
2023/02/09 04:55:39;;;;;;;14.65;6.45;;;;;;;1.04;76.20;101275.47;5096340;28;20043;-47
2023/02/09 05:00:50;;;;;;;16.83;6.10;;;;;;;1.04;75.65;101260.09;5106965;28;20490;-53
2023/02/09 05:03:16;;;;;;;16.52;6.90;;;;;;;0.97;75.54;101269.28;5107148;28;20047;-50
2023/02/09 05:05:42;;;;;;;14.10;6.63;;;;;;;0.95;75.63;101262.38;5107694;28;20587;-55
2023/02/09 05:08:08;;;;;;;11.38;6.13;;;;;;;0.99;75.61;101261.66;5106433;28;20511;-50
2023/02/09 05:10:34;;;;;;;11.77;5.80;;;;;;;1.02;75.58;101264.28;5097358;28;20047;-51
2023/02/09 05:13:00;;;;;;;10.77;6.30;;;;;;;1.05;75.46;101264.38;5100194;28;20046;-52
2023/02/09 05:15:26;;;;;;;13.38;6.40;;;;;;;1.06;75.31;101258.44;5080914;28;20046;-51
2023/02/09 05:17:52;;;;;;;11.00;5.50;;;;;;;1.08;74.98;101251.69;5087048;28;20537;-53
2023/02/09 05:20:18;;;;;;;11.93;6.32;;;;;;;0.81;74.90;101208.22;5092252;28;20043;-48
2023/02/09 05:22:44;;;;;;;10.95;6.28;;;;;;;1.11;74.73;101262.00;5110444;28;20409;-53
2023/02/09 05:25:10;;;;;;;12.35;6.38;;;;;;;1.12;75.04;101259.50;5110875;28;20039;-57
2023/02/09 05:27:35;;;;;;;11.20;6.75;;;;;;;1.15;74.58;101254.44;5111809;28;20047;-55
2023/02/09 05:30:02;;;;;;;11.57;6.30;;;;;;;1.14;74.56;101259.53;5102138;28;20096;-57
2023/02/09 05:32:30;;;;;;;11.65;5.95;;;;;;;1.16;74.73;101263.00;5110471;28;20499;-58
2023/02/09 05:34:55;;;;;;;13.45;6.45;;;;;;;1.16;74.63;101268.13;5111849;28;20047;-54
2023/02/09 05:37:21;;;;;;;11.48;5.75;;;;;;;1.16;74.68;101275.81;5111419;28;20075;-54
2023/02/09 05:39:49;;;;;;;10.73;6.00;;;;;;;1.19;74.82;101281.03;5109442;28;20051;-54
2023/02/09 05:42:15;;;;;;;13.15;6.93;;;;;;;1.14;74.56;101264.66;5109045;28;20044;-53
2023/02/09 05:44:43;;;;;;;11.27;5.95;;;;;;;1.22;74.40;101273.41;5110734;28;20096;-52
2023/02/09 05:47:10;;;;;;;13.25;7.03;;;;;;;1.22;74.43;101260.63;5112121;28;20035;-52
2023/02/09 05:49:36;;;;;;;11.73;6.10;;;;;;;1.24;74.40;101262.41;5111962;28;20135;-52
2023/02/09 05:52:03;;;;;;;12.10;6.40;;;;;;;1.04;74.23;101235.34;5110705;28;20586;-56
2023/02/09 05:54:29;;;;;;;11.68;5.90;;;;;;;1.22;74.19;101263.16;5107676;28;20054;-56
2023/02/09 05:56:54;;;;;;;12.25;6.20;;;;;;;1.26;74.32;101270.13;5100887;28;20043;-51
2023/02/09 05:59:20;;;;;;;13.52;7.22;;;;;;;1.27;74.18;101265.03;5110959;28;20043;-55
2023/02/09 06:01:46;;;;;;;13.25;7.18;;;;;;;1.32;74.14;101271.97;5104134;28;20040;-54
2023/02/09 06:04:12;;;;;;;14.80;6.13;;;;;;;1.32;73.92;101277.09;5091254;28;20048;-53
2023/02/09 06:06:38;;;;;;;12.73;6.18;;;;;;;1.30;74.16;101255.72;5096533;28;20043;-55
2023/02/09 06:09:04;;;;;;;12.63;5.95;;;;;;;1.35;73.85;101264.41;5100459;28;20084;-54
2023/02/09 06:11:30;;;;;;;11.05;5.88;;;;;;;1.31;73.85;101260.03;5100883;28;20054;-54
2023/02/09 06:13:56;;;;;;;13.00;6.30;;;;;;;1.33;73.92;101272.03;5099316;28;20067;-57
2023/02/09 06:16:22;;;;;;;12.10;6.20;;;;;;;1.31;73.93;101253.19;5109842;28;20118;-54
2023/02/09 06:18:48;;;;;;;11.60;6.18;;;;;;;1.35;73.79;101254.16;5105475;28;20043;-53
2023/02/09 06:21:14;;;;;;;12.18;5.63;;;;;;;1.33;73.70;101250.66;5108984;28;20467;-51
2023/02/09 06:23:39;;;;;;;11.68;6.03;;;;;;;1.36;73.34;101259.31;5104459;28;20047;-55
2023/02/09 06:26:12;;;;;;;11.00;5.95;;;;;;;1.40;73.57;101261.16;5100574;28;20040;-55
2023/02/09 06:28:38;;;;;;;11.15;5.78;;;;;;;1.38;73.38;101255.09;5104124;28;20430;-55
2023/02/09 06:31:04;;;;;;;15.30;6.65;;;;;;;1.43;73.42;101256.09;5105750;28;20119;-55
2023/02/09 06:33:32;;;;;;;11.20;6.22;;;;;;;1.42;73.28;101251.78;5056369;28;20040;-54
2023/02/09 06:35:57;;;;;;;13.45;5.93;;;;;;;1.48;73.27;101256.22;5091139;28;20048;-54
2023/02/09 06:38:23;;;;;;;14.60;6.63;;;;;;;1.44;73.23;101242.47;5085773;28;20048;-53
2023/02/09 06:40:49;;;;;;;11.23;6.20;;;;;;;1.53;72.84;101241.84;5104184;28;20536;-51
2023/02/09 06:43:16;;;;;;;12.57;5.90;;;;;;;1.47;72.89;101247.66;5095376;28;20048;-53
2023/02/09 06:45:42;;;;;;;10.88;5.72;;;;;;;1.44;73.24;101245.03;5106200;28;20066;-50
2023/02/09 06:48:09;;;;;;;11.93;5.50;;;;;;;1.47;73.14;101245.09;5102106;28;20036;-51
2023/02/09 06:50:36;;;;;;;11.25;5.10;;;;;;;1.44;73.35;101246.72;5106162;28;20137;-54
2023/02/09 06:53:02;;;;;;;9.50;5.07;;;;;;;1.43;72.95;101237.28;5108934;28;20487;-52
2023/02/09 06:55:28;;;;;;;11.90;5.15;;;;;;;1.42;72.78;101246.66;5109047;28;20130;-55
2023/02/09 06:57:54;;;;;;;15.57;8.15;;;;;;;1.49;72.61;101246.00;5108801;28;20131;-50
2023/02/09 07:00:21;;;;;;;12.38;5.60;;;;;;;1.59;72.94;101252.25;5108645;28;20047;-53
2023/02/09 07:02:47;;;;;;;8.95;4.55;;;;;;;1.68;72.18;101249.94;5092052;28;20134;-53
2023/02/09 07:05:14;;;;;;;11.07;4.57;;;;;;;1.55;72.12;101212.88;5083120;28;20127;-53
2023/02/09 07:07:40;;;;;;;9.00;3.85;;;;;;;1.80;71.66;101241.69;5098221;28;20035;-50
2023/02/09 07:10:08;;;;;;;7.93;4.30;;;;;;;1.85;71.61;101250.38;5110619;28;20040;-52
2023/02/09 07:12:34;;;;;;;9.80;4.47;;;;;;;1.88;71.63;101253.91;5074020;28;20456;-51
2023/02/09 07:15:00;;;;;;;15.15;3.90;;;;;;;1.90;71.20;101251.34;5098529;28;20052;-50
2023/02/09 07:17:30;;;;;;;9.40;4.40;;;;;;;1.78;71.20;101221.13;5102732;28;20066;-52
2023/02/09 07:19:56;;;;;;;10.10;4.57;;;;;;;1.94;71.38;101250.59;5099953;28;20043;-53
2023/02/09 07:22:22;;;;;;;8.60;4.13;;;;;;;1.97;70.99;101254.13;5101818;28;20039;-51
2023/02/09 07:24:48;;;;;;;9.68;4.70;;;;;;;1.90;70.91;101244.53;5103838;28;20051;-52
2023/02/09 07:27:14;;;;;;;10.68;5.18;;;;;;;1.95;71.00;101242.97;5108224;28;20043;-51
2023/02/09 07:29:40;;;;;;;10.63;4.80;;;;;;;2.02;70.78;101242.28;5075354;28;20043;-50
2023/02/09 07:32:06;;;;;;;13.30;5.22;;;;;;;1.91;71.02;101256.53;5099342;28;20035;-54
2023/02/09 07:34:33;;;;;;;11.70;4.88;;;;;;;1.93;70.96;101264.28;5103031;28;20054;-54
2023/02/09 07:36:59;;;;;;;6.85;4.18;;;;;;;1.94;70.81;101261.72;5103890;28;20097;-53
2023/02/09 07:39:25;;;;;;;9.90;4.60;;;;;;;1.90;70.72;101264.19;5106542;28;20076;-55
2023/02/09 07:41:51;;;;;;;9.10;4.40;;;;;;;1.84;71.11;101248.63;5103087;28;20036;-55
2023/02/09 07:44:17;;;;;;;9.45;4.68;;;;;;;1.69;70.83;101214.09;5106053;28;20491;-56
2023/02/09 07:46:43;;;;;;;10.65;5.25;;;;;;;1.90;70.57;101235.97;5105608;28;20130;-55
2023/02/09 07:49:09;;;;;;;11.80;4.60;;;;;;;1.59;70.39;101181.34;5085993;28;20087;-55
2023/02/09 07:51:35;;;;;;;8.70;4.72;;;;;;;1.94;70.59;101240.34;5099196;28;20507;-52
2023/02/09 07:54:01;;;;;;;9.43;4.63;;;;;;;1.98;70.49;101239.63;5104291;28;20044;-52
2023/02/09 07:56:27;;;;;;;11.10;4.45;;;;;;;2.01;70.38;101234.56;5076057;28;20220;-54
2023/02/09 07:58:54;;;;;;;10.00;4.53;;;;;;;2.06;70.68;101231.28;5098924;28;20104;-55
2023/02/09 08:01:20;;;;;;;9.77;5.22;;;;;;;2.13;70.45;101242.56;5104178;28;20035;-50
2023/02/09 08:03:48;;;;;;;10.07;4.70;;;;;;;2.20;70.10;101236.72;5094480;28;20059;-54
2023/02/09 08:06:20;;;;;;;8.95;4.20;;;;;;;2.25;70.14;101237.69;5096697;28;20040;-53
2023/02/09 08:08:50;;;;;;;9.90;4.93;;;;;;;2.24;70.21;101241.13;5100445;28;20047;-58
2023/02/09 08:11:19;;;;;;;8.20;4.78;;;;;;;2.21;70.02;101237.59;5100333;28;20036;-54
2023/02/09 08:13:45;;;;;;;9.48;4.68;;;;;;;2.14;69.76;101231.47;5097486;28;20047;-53
2023/02/09 08:16:14;;;;;;;11.10;4.78;;;;;;;2.18;69.82;101240.97;5098783;28;20383;-54
2023/02/09 08:18:50;;;;;;;9.82;4.90;;;;;;;2.19;69.96;101239.28;5101484;28;20554;-51
2023/02/09 08:21:16;;;;;;;11.75;5.00;;;;;;;1.95;69.96;101188.22;5098150;28;20092;-53
2023/02/09 08:23:45;;;;;;;11.75;5.30;;;;;;;2.09;69.84;101203.13;5103510;28;20046;-53
2023/02/09 08:26:12;;;;;;;18.87;6.33;;;;;;;2.37;69.65;101238.00;5102635;28;20039;-59
2023/02/09 08:28:43;;;;;;;13.60;6.50;;;;;;;2.30;69.70;101237.84;5100836;28;20043;-53
2023/02/09 08:31:10;;;;;;;14.40;6.53;;;;;;;2.27;70.25;101230.91;5091712;28;20042;-51
2023/02/09 08:33:36;;;;;;;14.75;6.90;;;;;;;2.32;69.92;101221.63;5102219;28;20129;-53
2023/02/09 08:36:03;;;;;;;19.13;7.93;;;;;;;2.39;70.05;101227.78;5100681;28;20551;-58
2023/02/09 08:38:28;;;;;;;16.25;7.30;;;;;;;2.45;70.06;101238.19;5094543;28;20047;-54
2023/02/09 08:40:54;;;;;;;15.35;7.97;;;;;;;2.43;69.85;101237.28;5086662;28;20031;-54
2023/02/09 08:43:20;;;;;;;19.60;7.93;;;;;;;2.40;69.95;101239.78;5101556;28;20151;-53
2023/02/09 08:45:46;;;;;;;18.30;8.15;;;;;;;2.09;69.83;101238.19;5100266;28;20036;-52
2023/02/09 08:48:12;;;;;;;17.70;7.70;;;;;;;1.97;71.08;101240.44;5097682;28;20126;-55
2023/02/09 08:50:38;;;;;;;15.60;7.53;;;;;;;2.02;70.86;101241.41;5100873;28;20040;-54
2023/02/09 08:53:05;;;;;;;15.05;7.35;;;;;;;1.92;71.04;101216.38;5100355;28;20043;-54
2023/02/09 08:55:32;;;;;;;14.93;7.25;;;;;;;1.99;70.78;101195.19;5103218;28;20051;-52
2023/02/09 08:57:58;;;;;;;18.65;8.23;;;;;;;2.20;70.53;101234.16;5100811;28;20031;-56
2023/02/09 09:00:25;;;;;;;16.90;7.50;;;;;;;2.18;70.60;101225.59;5095121;28;20089;-52
2023/02/09 09:02:51;;;;;;;16.92;7.97;;;;;;;2.02;71.02;101221.78;5098975;28;20039;-51
2023/02/09 09:05:17;;;;;;;17.92;8.10;;;;;;;1.70;71.05;101205.56;5098760;28;20141;-55
2023/02/09 09:07:43;;;;;;;23.63;8.73;;;;;;;1.65;71.84;101211.41;5101580;28;20107;-53
2023/02/09 09:10:09;;;;;;;18.05;7.75;;;;;;;1.65;72.03;101222.53;5092356;28;20085;-55
2023/02/09 09:12:36;;;;;;;18.20;8.23;;;;;;;1.60;72.78;101228.38;5101558;28;20039;-53
2023/02/09 09:15:02;;;;;;;16.27;7.68;;;;;;;1.49;72.61;101222.94;5096633;28;20040;-53
2023/02/09 09:17:31;;;;;;;17.40;6.97;;;;;;;1.45;73.05;101226.25;5099628;28;20039;-54
2023/02/09 09:19:57;;;;;;;16.85;7.97;;;;;;;1.41;73.18;101224.44;5104836;28;20104;-55
2023/02/09 09:22:23;;;;;;;14.10;6.70;;;;;;;1.38;73.58;101232.03;5099573;28;20123;-55
2023/02/09 09:24:49;;;;;;;25.15;10.35;;;;;;;1.49;73.50;101230.63;5103632;28;20036;-54
2023/02/09 09:27:15;;;;;;;25.00;9.45;;;;;;;1.62;73.29;101219.88;5101425;28;20042;-54
2023/02/09 09:29:41;;;;;;;22.17;8.35;;;;;;;1.78;72.95;101228.00;5098542;28;20039;-52
2023/02/09 09:32:11;;;;;;;21.48;8.27;;;;;;;1.79;72.42;101228.00;5096941;28;20039;-57
2023/02/09 09:34:37;;;;;;;24.38;8.05;;;;;;;1.61;72.57;101194.22;5104163;28;20035;-54
2023/02/09 09:37:03;;;;;;;23.15;8.52;;;;;;;1.67;72.94;101220.00;5103579;28;20054;-51
2023/02/09 09:39:29;;;;;;;18.30;7.75;;;;;;;1.53;73.57;101226.44;5101930;28;20180;-54
2023/02/09 09:41:58;;;;;;;22.15;9.13;;;;;;;1.46;73.53;101222.00;5099689;28;20074;-58
2023/02/09 09:44:30;;;;;;;20.27;8.77;;;;;;;1.42;73.77;101213.34;5096635;28;20035;-49
2023/02/09 09:47:00;;;;;;;17.75;7.38;;;;;;;1.33;74.00;101200.31;5094362;28;20047;-50
2023/02/09 09:49:30;;;;;;;20.27;9.13;;;;;;;1.52;73.95;101210.19;5100439;28;20067;-55
2023/02/09 09:52:03;;;;;;;18.70;8.68;;;;;;;1.62;73.78;101214.75;5099353;28;20043;-53
2023/02/09 09:54:30;;;;;;;19.88;8.20;;;;;;;1.38;73.86;101183.34;5102612;28;20061;-54
2023/02/09 09:56:56;;;;;;;17.05;7.63;;;;;;;1.45;74.04;101207.47;5095942;28;20167;-53
2023/02/09 09:59:33;;;;;;;17.55;8.00;;;;;;;1.39;74.16;101202.16;5100175;28;20550;-54
2023/02/09 10:02:15;;;;;;;14.52;7.03;;;;;;;1.42;74.58;101200.53;5103654;28;20047;-54
2023/02/09 10:04:41;;;;;;;17.45;7.85;;;;;;;1.45;74.62;101195.50;5100659;28;20122;-55
2023/02/09 10:07:15;;;;;;;19.73;8.95;;;;;;;1.52;74.57;101204.22;5104774;28;20581;-54
2023/02/09 10:09:44;;;;;;;16.15;7.78;;;;;;;1.38;74.82;101197.84;5105315;28;20043;-51
2023/02/09 10:12:31;;;;;;;27.25;10.50;;;;;;;1.37;75.30;101191.00;5119626;27;21722;-51
2023/02/09 10:14:57;;;;;;;14.50;6.80;;;;;;;1.40;75.02;101199.66;5103721;28;20067;-55
2023/02/09 10:17:23;;;;;;;21.52;9.23;;;;;;;1.41;75.40;101190.28;5104881;28;20096;-56
2023/02/09 10:20:00;;;;;;;15.65;8.40;;;;;;;1.54;75.30;101189.75;5104961;28;20507;-53
2023/02/09 10:22:26;;;;;;;22.92;9.98;;;;;;;1.65;74.76;101190.91;5102900;28;20035;-55
2023/02/09 10:24:52;;;;;;;20.20;8.90;;;;;;;1.54;74.87;101157.31;5104163;28;20198;-53
2023/02/09 10:27:27;;;;;;;17.60;8.40;;;;;;;1.76;74.62;101188.59;5100421;28;20540;-50
2023/02/09 10:29:54;;;;;;;17.23;7.72;;;;;;;1.72;74.64;101184.25;5085628;28;20131;-50
2023/02/09 10:32:28;;;;;;;19.58;8.50;;;;;;;1.80;74.31;101183.59;5105768;28;20047;-52
2023/02/09 10:35:02;;;;;;;23.80;8.60;;;;;;;1.90;74.06;101184.69;5102445;28;20503;-53
2023/02/09 10:37:33;;;;;;;20.70;9.70;;;;;;;1.83;73.81;101183.69;5101845;28;20040;-51
2023/02/09 10:40:18;;;;;;;;;;;;;;;1.84;73.85;101172.56;5100679;28;20044;-51
2023/02/09 10:43:21;;;;;;;16.40;8.07;;;;;;;1.78;73.68;101166.44;5102408;28;20014;-52
2023/02/09 10:45:52;;;;;;;17.05;8.10;;;;;;;2.00;73.64;101172.13;5083795;28;20051;-53
2023/02/09 10:48:19;;;;;;;16.88;7.93;;;;;;;2.05;73.30;101174.78;5092442;28;20047;-52
2023/02/09 10:50:53;;;;;;;17.40;7.47;;;;;;;1.96;73.12;101166.88;5104119;28;20532;-54
2023/02/09 10:53:24;;;;;;;14.90;7.50;;;;;;;2.12;73.06;101161.28;5086668;28;20130;-53
2023/02/09 10:55:53;;;;;;;15.25;7.32;;;;;;;2.01;72.54;101170.44;5099218;28;20105;-53
2023/02/09 10:58:31;;;;;;;16.35;7.95;;;;;;;1.86;72.83;101162.38;5097538;28;20479;-56
2023/02/09 11:01:19;;;;;;;15.68;7.28;;;;;;;1.88;72.99;101156.47;5100823;28;20122;-51
2023/02/09 11:04:00;;;;;;;21.10;7.57;;;;;;;2.11;72.57;101149.28;5105820;28;20050;-54
2023/02/09 11:06:27;;;;;;;16.33;7.70;;;;;;;2.29;72.13;101156.56;5100033;28;20039;-53
2023/02/09 11:09:06;;;;;;;12.70;7.07;;;;;;;2.12;72.02;101151.03;5104588;28;20067;-51
2023/02/09 11:11:37;;;;;;;21.52;7.63;;;;;;;2.15;72.29;101145.13;5100337;28;20570;-50
2023/02/09 11:14:10;;;;;;;13.65;6.25;;;;;;;2.08;71.70;101154.38;5105459;28;20043;-50
2023/02/09 11:17:35;;;;;;;13.65;5.95;;;;;;;1.93;72.00;101151.44;5093178;28;20100;-50
2023/02/09 11:20:34;;;;;;;16.08;6.65;;;;;;;1.88;72.15;101146.19;5070662;28;20134;-52
2023/02/09 11:23:18;;;;;;;15.07;5.85;;;;;;;1.86;71.92;101146.97;5112918;27;20071;-53
2023/02/09 11:25:59;;;;;;;14.68;7.07;;;;;;;1.88;71.63;101153.91;5098013;28;20504;-53
2023/02/09 11:29:01;;;;;;;15.45;6.82;;;;;;;1.72;71.68;101143.22;5105991;28;20115;-53
2023/02/09 11:31:56;;;;;;;12.10;4.95;;;;;;;1.57;71.50;101136.03;5064971;28;20032;-50
2023/02/09 11:34:37;;;;;;;11.50;4.80;;;;;;;1.51;71.57;101135.88;5097624;28;20119;-52
2023/02/09 11:37:21;;;;;;;13.95;5.10;;;;;;;1.63;71.29;101134.44;5098632;28;20043;-52
2023/02/09 11:40:18;;;;;;;10.68;4.82;;;;;;;1.70;71.29;101130.34;5101261;28;20055;-54
2023/02/09 11:42:50;;;;;;;10.40;4.78;;;;;;;1.82;70.83;101134.91;5081309;28;20040;-51
2023/02/09 11:45:29;;;;;;;14.82;5.40;;;;;;;1.74;70.67;101133.84;5073599;28;20396;-52
2023/02/09 11:47:58;;;;;;;11.80;5.07;;;;;;;1.74;70.38;101134.72;5096680;28;20040;-54